sensor_id;sensor_type;location;lat;lon;timestamp;P1;durP1;ratioP1;P2;durP2;ratioP2
29402;SDS011;16382;59.942;30.472;2023-02-15T00:01:56;4.43;;;2.08;;
29402;SDS011;16382;59.942;30.472;2023-02-15T00:04:24;8.25;;;3.38;;
29402;SDS011;16382;59.942;30.472;2023-02-15T00:07:13;5.68;;;2.47;;
29402;SDS011;16382;59.942;30.472;2023-02-15T00:09:41;5.55;;;2.10;;
29402;SDS011;16382;59.942;30.472;2023-02-15T00:12:11;4.80;;;2.20;;
29402;SDS011;16382;59.942;30.472;2023-02-15T00:14:39;5.03;;;2.10;;
29402;SDS011;16382;59.942;30.472;2023-02-15T00:17:07;9.90;;;2.15;;
29402;SDS011;16382;59.942;30.472;2023-02-15T00:19:34;7.47;;;2.75;;
29402;SDS011;16382;59.942;30.472;2023-02-15T00:22:02;5.60;;;1.83;;
29402;SDS011;16382;59.942;30.472;2023-02-15T00:24:31;4.85;;;1.77;;
29402;SDS011;16382;59.942;30.472;2023-02-15T00:26:59;6.38;;;2.30;;
29402;SDS011;16382;59.942;30.472;2023-02-15T00:29:27;4.82;;;2.90;;
29402;SDS011;16382;59.942;30.472;2023-02-15T00:31:54;16.67;;;3.38;;
29402;SDS011;16382;59.942;30.472;2023-02-15T00:34:23;20.23;;;4.85;;
29402;SDS011;16382;59.942;30.472;2023-02-15T00:36:53;14.93;;;3.72;;
29402;SDS011;16382;59.942;30.472;2023-02-15T00:39:20;15.13;;;3.40;;
29402;SDS011;16382;59.942;30.472;2023-02-15T00:41:50;16.77;;;3.80;;
29402;SDS011;16382;59.942;30.472;2023-02-15T00:44:17;31.05;;;5.10;;
29402;SDS011;16382;59.942;30.472;2023-02-15T00:46:45;25.88;;;4.65;;
29402;SDS011;16382;59.942;30.472;2023-02-15T00:49:12;16.45;;;3.67;;
29402;SDS011;16382;59.942;30.472;2023-02-15T00:51:40;10.77;;;2.60;;
29402;SDS011;16382;59.942;30.472;2023-02-15T00:54:07;17.98;;;4.00;;
29402;SDS011;16382;59.942;30.472;2023-02-15T00:56:35;10.18;;;3.85;;
29402;SDS011;16382;59.942;30.472;2023-02-15T00:59:04;9.32;;;3.10;;
29402;SDS011;16382;59.942;30.472;2023-02-15T01:01:34;14.55;;;4.13;;
29402;SDS011;16382;59.942;30.472;2023-02-15T01:04:01;8.85;;;3.50;;
29402;SDS011;16382;59.942;30.472;2023-02-15T01:06:29;6.53;;;2.78;;
29402;SDS011;16382;59.942;30.472;2023-02-15T01:08:56;7.90;;;3.15;;
29402;SDS011;16382;59.942;30.472;2023-02-15T01:11:24;13.07;;;4.00;;
29402;SDS011;16382;59.942;30.472;2023-02-15T01:13:52;13.10;;;3.33;;
29402;SDS011;16382;59.942;30.472;2023-02-15T01:16:23;8.32;;;2.85;;
29402;SDS011;16382;59.942;30.472;2023-02-15T01:18:54;14.80;;;3.67;;
29402;SDS011;16382;59.942;30.472;2023-02-15T01:21:25;11.48;;;2.95;;
29402;SDS011;16382;59.942;30.472;2023-02-15T01:24:01;13.90;;;3.13;;
29402;SDS011;16382;59.942;30.472;2023-02-15T01:26:29;13.30;;;3.42;;
29402;SDS011;16382;59.942;30.472;2023-02-15T01:28:57;13.00;;;4.20;;
29402;SDS011;16382;59.942;30.472;2023-02-15T01:31:26;20.58;;;3.65;;
29402;SDS011;16382;59.942;30.472;2023-02-15T01:33:53;7.55;;;3.30;;
29402;SDS011;16382;59.942;30.472;2023-02-15T01:36:21;9.57;;;2.60;;
29402;SDS011;16382;59.942;30.472;2023-02-15T01:38:48;12.23;;;3.45;;
29402;SDS011;16382;59.942;30.472;2023-02-15T01:41:16;10.30;;;2.85;;
29402;SDS011;16382;59.942;30.472;2023-02-15T01:43:49;9.80;;;3.45;;
29402;SDS011;16382;59.942;30.472;2023-02-15T01:46:18;19.52;;;3.58;;
29402;SDS011;16382;59.942;30.472;2023-02-15T01:48:52;20.65;;;4.47;;
29402;SDS011;16382;59.942;30.472;2023-02-15T01:51:25;11.70;;;4.07;;
29402;SDS011;16382;59.942;30.472;2023-02-15T01:53:57;8.63;;;3.13;;
29402;SDS011;16382;59.942;30.472;2023-02-15T01:56:30;30.05;;;4.25;;
29402;SDS011;16382;59.942;30.472;2023-02-15T01:59:03;25.70;;;4.30;;
29402;SDS011;16382;59.942;30.472;2023-02-15T02:01:35;9.23;;;3.60;;
29402;SDS011;16382;59.942;30.472;2023-02-15T02:04:07;14.05;;;4.28;;
29402;SDS011;16382;59.942;30.472;2023-02-15T02:06:41;24.02;;;4.28;;
29402;SDS011;16382;59.942;30.472;2023-02-15T02:09:11;13.93;;;3.67;;
29402;SDS011;16382;59.942;30.472;2023-02-15T02:11:40;10.45;;;3.72;;
29402;SDS011;16382;59.942;30.472;2023-02-15T02:16:42;12.63;;;3.88;;
29402;SDS011;16382;59.942;30.472;2023-02-15T02:19:25;13.77;;;3.88;;
29402;SDS011;16382;59.942;30.472;2023-02-15T02:22:39;9.43;;;4.22;;
29402;SDS011;16382;59.942;30.472;2023-02-15T02:25:53;13.52;;;4.70;;
29402;SDS011;16382;59.942;30.472;2023-02-15T02:28:55;11.05;;;4.80;;
29402;SDS011;16382;59.942;30.472;2023-02-15T02:32:17;9.50;;;4.20;;
29402;SDS011;16382;59.942;30.472;2023-02-15T02:35:22;16.77;;;4.38;;
29402;SDS011;16382;59.942;30.472;2023-02-15T02:38:00;8.65;;;4.35;;
29402;SDS011;16382;59.942;30.472;2023-02-15T02:40:39;9.35;;;3.65;;
29402;SDS011;16382;59.942;30.472;2023-02-15T02:43:17;15.27;;;4.53;;
29402;SDS011;16382;59.942;30.472;2023-02-15T02:45:50;8.00;;;3.85;;
29402;SDS011;16382;59.942;30.472;2023-02-15T02:48:25;12.82;;;4.20;;
29402;SDS011;16382;59.942;30.472;2023-02-15T02:50:56;10.30;;;4.32;;
29402;SDS011;16382;59.942;30.472;2023-02-15T02:53:23;7.93;;;3.78;;
29402;SDS011;16382;59.942;30.472;2023-02-15T02:55:51;10.30;;;4.00;;
29402;SDS011;16382;59.942;30.472;2023-02-15T02:58:24;10.02;;;4.63;;
29402;SDS011;16382;59.942;30.472;2023-02-15T03:00:57;14.30;;;4.22;;
29402;SDS011;16382;59.942;30.472;2023-02-15T03:03:34;11.65;;;4.47;;
29402;SDS011;16382;59.942;30.472;2023-02-15T03:08:36;9.15;;;3.80;;
29402;SDS011;16382;59.942;30.472;2023-02-15T03:11:09;10.57;;;4.00;;
29402;SDS011;16382;59.942;30.472;2023-02-15T03:13:39;13.27;;;4.47;;
29402;SDS011;16382;59.942;30.472;2023-02-15T03:16:08;6.97;;;3.78;;
29402;SDS011;16382;59.942;30.472;2023-02-15T03:18:55;9.32;;;4.82;;
29402;SDS011;16382;59.942;30.472;2023-02-15T03:21:31;14.35;;;4.63;;
29402;SDS011;16382;59.942;30.472;2023-02-15T03:24:07;15.52;;;5.75;;
29402;SDS011;16382;59.942;30.472;2023-02-15T03:26:39;12.88;;;5.13;;
29402;SDS011;16382;59.942;30.472;2023-02-15T03:29:09;10.63;;;5.05;;
29402;SDS011;16382;59.942;30.472;2023-02-15T03:31:39;13.57;;;5.55;;
29402;SDS011;16382;59.942;30.472;2023-02-15T03:34:11;18.02;;;5.70;;
29402;SDS011;16382;59.942;30.472;2023-02-15T03:36:43;16.40;;;5.80;;
29402;SDS011;16382;59.942;30.472;2023-02-15T03:39:17;10.87;;;5.53;;
29402;SDS011;16382;59.942;30.472;2023-02-15T03:41:51;10.30;;;4.75;;
29402;SDS011;16382;59.942;30.472;2023-02-15T03:44:26;10.82;;;5.75;;
29402;SDS011;16382;59.942;30.472;2023-02-15T03:46:59;12.55;;;5.55;;
29402;SDS011;16382;59.942;30.472;2023-02-15T03:49:36;9.95;;;6.15;;
29402;SDS011;16382;59.942;30.472;2023-02-15T03:52:08;14.13;;;5.80;;
29402;SDS011;16382;59.942;30.472;2023-02-15T03:54:39;12.18;;;5.53;;
29402;SDS011;16382;59.942;30.472;2023-02-15T03:57:13;11.55;;;6.55;;
29402;SDS011;16382;59.942;30.472;2023-02-15T04:00:03;13.73;;;5.70;;
29402;SDS011;16382;59.942;30.472;2023-02-15T04:03:01;16.75;;;5.40;;
29402;SDS011;16382;59.942;30.472;2023-02-15T04:05:39;10.85;;;5.93;;
29402;SDS011;16382;59.942;30.472;2023-02-15T04:08:07;9.75;;;5.15;;
29402;SDS011;16382;59.942;30.472;2023-02-15T04:10:35;8.60;;;4.97;;
29402;SDS011;16382;59.942;30.472;2023-02-15T04:13:17;11.98;;;5.10;;
29402;SDS011;16382;59.942;30.472;2023-02-15T04:15:44;7.78;;;4.85;;
29402;SDS011;16382;59.942;30.472;2023-02-15T04:18:30;8.38;;;5.28;;
29402;SDS011;16382;59.942;30.472;2023-02-15T04:21:17;12.55;;;5.70;;
29402;SDS011;16382;59.942;30.472;2023-02-15T04:24:05;21.42;;;5.18;;
29402;SDS011;16382;59.942;30.472;2023-02-15T04:26:54;15.15;;;6.57;;
29402;SDS011;16382;59.942;30.472;2023-02-15T04:29:22;13.68;;;6.03;;
29402;SDS011;16382;59.942;30.472;2023-02-15T04:31:52;16.65;;;5.18;;
29402;SDS011;16382;59.942;30.472;2023-02-15T04:34:22;10.43;;;5.40;;
29402;SDS011;16382;59.942;30.472;2023-02-15T04:36:52;13.20;;;5.20;;
29402;SDS011;16382;59.942;30.472;2023-02-15T04:39:22;10.55;;;4.45;;
29402;SDS011;16382;59.942;30.472;2023-02-15T04:41:50;11.70;;;4.90;;
29402;SDS011;16382;59.942;30.472;2023-02-15T04:44:17;11.68;;;4.43;;
29402;SDS011;16382;59.942;30.472;2023-02-15T04:46:52;8.80;;;4.87;;
29402;SDS011;16382;59.942;30.472;2023-02-15T04:49:20;9.95;;;4.78;;
29402;SDS011;16382;59.942;30.472;2023-02-15T04:51:47;13.20;;;5.47;;
29402;SDS011;16382;59.942;30.472;2023-02-15T04:54:16;14.82;;;5.40;;
29402;SDS011;16382;59.942;30.472;2023-02-15T04:56:43;12.60;;;5.28;;
29402;SDS011;16382;59.942;30.472;2023-02-15T04:59:11;12.82;;;5.63;;
29402;SDS011;16382;59.942;30.472;2023-02-15T05:01:39;15.43;;;5.85;;
29402;SDS011;16382;59.942;30.472;2023-02-15T05:04:07;10.60;;;5.25;;
29402;SDS011;16382;59.942;30.472;2023-02-15T05:06:34;17.58;;;6.03;;
29402;SDS011;16382;59.942;30.472;2023-02-15T05:09:02;14.20;;;5.53;;
29402;SDS011;16382;59.942;30.472;2023-02-15T05:11:31;13.48;;;5.65;;
29402;SDS011;16382;59.942;30.472;2023-02-15T05:13:58;14.35;;;6.07;;
29402;SDS011;16382;59.942;30.472;2023-02-15T05:16:26;14.30;;;5.07;;
29402;SDS011;16382;59.942;30.472;2023-02-15T05:18:54;15.60;;;6.03;;
29402;SDS011;16382;59.942;30.472;2023-02-15T05:21:21;12.05;;;5.30;;
29402;SDS011;16382;59.942;30.472;2023-02-15T05:23:49;13.23;;;5.88;;
29402;SDS011;16382;59.942;30.472;2023-02-15T05:26:16;22.38;;;9.68;;
29402;SDS011;16382;59.942;30.472;2023-02-15T05:29:05;17.45;;;6.32;;
29402;SDS011;16382;59.942;30.472;2023-02-15T05:31:33;17.33;;;6.32;;
29402;SDS011;16382;59.942;30.472;2023-02-15T05:34:02;18.42;;;7.35;;
29402;SDS011;16382;59.942;30.472;2023-02-15T05:36:29;14.48;;;6.85;;
29402;SDS011;16382;59.942;30.472;2023-02-15T05:38:57;16.88;;;6.70;;
29402;SDS011;16382;59.942;30.472;2023-02-15T05:41:25;21.25;;;7.03;;
29402;SDS011;16382;59.942;30.472;2023-02-15T05:43:54;17.25;;;6.80;;
29402;SDS011;16382;59.942;30.472;2023-02-15T05:46:23;12.75;;;6.63;;
29402;SDS011;16382;59.942;30.472;2023-02-15T05:48:51;13.98;;;6.03;;
29402;SDS011;16382;59.942;30.472;2023-02-15T05:51:18;12.20;;;6.20;;
29402;SDS011;16382;59.942;30.472;2023-02-15T05:53:46;18.25;;;6.78;;
29402;SDS011;16382;59.942;30.472;2023-02-15T05:56:13;23.67;;;7.00;;
29402;SDS011;16382;59.942;30.472;2023-02-15T05:58:41;22.08;;;7.05;;
29402;SDS011;16382;59.942;30.472;2023-02-15T06:01:09;14.45;;;6.70;;
29402;SDS011;16382;59.942;30.472;2023-02-15T06:03:44;21.98;;;7.35;;
29402;SDS011;16382;59.942;30.472;2023-02-15T06:06:12;19.35;;;7.95;;
29402;SDS011;16382;59.942;30.472;2023-02-15T06:08:40;18.30;;;7.13;;
29402;SDS011;16382;59.942;30.472;2023-02-15T06:11:08;18.88;;;7.60;;
29402;SDS011;16382;59.942;30.472;2023-02-15T06:13:36;30.20;;;8.10;;
29402;SDS011;16382;59.942;30.472;2023-02-15T06:16:04;14.88;;;6.40;;
29402;SDS011;16382;59.942;30.472;2023-02-15T06:18:34;20.23;;;6.55;;
29402;SDS011;16382;59.942;30.472;2023-02-15T06:21:03;22.23;;;6.40;;
29402;SDS011;16382;59.942;30.472;2023-02-15T06:23:30;14.77;;;6.32;;
29402;SDS011;16382;59.942;30.472;2023-02-15T06:25:58;14.32;;;6.35;;
29402;SDS011;16382;59.942;30.472;2023-02-15T06:28:26;15.95;;;7.72;;
29402;SDS011;16382;59.942;30.472;2023-02-15T06:30:54;17.25;;;6.82;;
29402;SDS011;16382;59.942;30.472;2023-02-15T06:33:21;18.15;;;6.70;;
29402;SDS011;16382;59.942;30.472;2023-02-15T06:35:49;15.60;;;6.82;;
29402;SDS011;16382;59.942;30.472;2023-02-15T06:38:18;18.10;;;7.13;;
29402;SDS011;16382;59.942;30.472;2023-02-15T06:40:46;19.88;;;7.32;;
29402;SDS011;16382;59.942;30.472;2023-02-15T06:43:13;20.42;;;7.85;;
29402;SDS011;16382;59.942;30.472;2023-02-15T06:45:41;17.65;;;8.35;;
29402;SDS011;16382;59.942;30.472;2023-02-15T06:48:08;20.08;;;8.43;;
29402;SDS011;16382;59.942;30.472;2023-02-15T06:50:36;20.30;;;9.38;;
29402;SDS011;16382;59.942;30.472;2023-02-15T06:53:04;20.90;;;10.70;;
29402;SDS011;16382;59.942;30.472;2023-02-15T06:55:33;26.02;;;9.77;;
29402;SDS011;16382;59.942;30.472;2023-02-15T06:58:00;24.73;;;10.40;;
29402;SDS011;16382;59.942;30.472;2023-02-15T07:00:27;23.83;;;10.27;;
29402;SDS011;16382;59.942;30.472;2023-02-15T07:02:55;21.63;;;9.88;;
29402;SDS011;16382;59.942;30.472;2023-02-15T07:05:24;23.02;;;9.93;;
29402;SDS011;16382;59.942;30.472;2023-02-15T07:07:56;21.92;;;9.85;;
29402;SDS011;16382;59.942;30.472;2023-02-15T07:10:25;20.73;;;9.38;;
29402;SDS011;16382;59.942;30.472;2023-02-15T07:12:55;25.98;;;9.52;;
29402;SDS011;16382;59.942;30.472;2023-02-15T07:15:21;22.17;;;9.65;;
29402;SDS011;16382;59.942;30.472;2023-02-15T07:17:49;20.27;;;10.02;;
29402;SDS011;16382;59.942;30.472;2023-02-15T07:20:18;19.05;;;9.40;;
29402;SDS011;16382;59.942;30.472;2023-02-15T07:22:47;24.52;;;8.95;;
29402;SDS011;16382;59.942;30.472;2023-02-15T07:25:15;24.38;;;9.30;;
29402;SDS011;16382;59.942;30.472;2023-02-15T07:27:43;23.85;;;9.85;;
29402;SDS011;16382;59.942;30.472;2023-02-15T07:30:13;24.25;;;9.73;;
29402;SDS011;16382;59.942;30.472;2023-02-15T07:32:43;23.60;;;9.23;;
29402;SDS011;16382;59.942;30.472;2023-02-15T07:35:29;22.27;;;9.65;;
29402;SDS011;16382;59.942;30.472;2023-02-15T07:37:56;25.13;;;10.07;;
29402;SDS011;16382;59.942;30.472;2023-02-15T07:40:23;21.67;;;9.63;;
29402;SDS011;16382;59.942;30.472;2023-02-15T07:42:57;27.90;;;10.13;;
29402;SDS011;16382;59.942;30.472;2023-02-15T07:45:26;23.08;;;9.70;;
29402;SDS011;16382;59.942;30.472;2023-02-15T07:47:53;22.92;;;8.93;;
29402;SDS011;16382;59.942;30.472;2023-02-15T07:50:21;22.35;;;9.30;;
29402;SDS011;16382;59.942;30.472;2023-02-15T07:52:48;31.20;;;11.32;;
29402;SDS011;16382;59.942;30.472;2023-02-15T07:55:16;23.20;;;8.63;;
29402;SDS011;16382;59.942;30.472;2023-02-15T07:57:44;21.48;;;8.00;;
29402;SDS011;16382;59.942;30.472;2023-02-15T08:00:13;22.58;;;9.15;;
29402;SDS011;16382;59.942;30.472;2023-02-15T08:02:48;22.77;;;8.35;;
29402;SDS011;16382;59.942;30.472;2023-02-15T08:05:37;20.80;;;8.07;;
29402;SDS011;16382;59.942;30.472;2023-02-15T08:08:05;18.75;;;8.55;;
29402;SDS011;16382;59.942;30.472;2023-02-15T08:10:35;20.48;;;9.25;;
29402;SDS011;16382;59.942;30.472;2023-02-15T08:13:20;21.52;;;8.52;;
29402;SDS011;16382;59.942;30.472;2023-02-15T08:15:48;24.17;;;8.30;;
29402;SDS011;16382;59.942;30.472;2023-02-15T08:18:16;18.58;;;7.28;;
29402;SDS011;16382;59.942;30.472;2023-02-15T08:20:48;13.73;;;6.63;;
29402;SDS011;16382;59.942;30.472;2023-02-15T08:23:16;17.50;;;8.35;;
29402;SDS011;16382;59.942;30.472;2023-02-15T08:25:43;15.88;;;7.53;;
29402;SDS011;16382;59.942;30.472;2023-02-15T08:28:11;16.77;;;7.35;;
29402;SDS011;16382;59.942;30.472;2023-02-15T08:30:38;16.08;;;6.78;;
29402;SDS011;16382;59.942;30.472;2023-02-15T08:33:07;15.25;;;6.75;;
29402;SDS011;16382;59.942;30.472;2023-02-15T08:35:37;13.15;;;7.40;;
29402;SDS011;16382;59.942;30.472;2023-02-15T08:38:04;17.13;;;7.22;;
29402;SDS011;16382;59.942;30.472;2023-02-15T08:40:32;14.43;;;7.50;;
29402;SDS011;16382;59.942;30.472;2023-02-15T08:42:59;18.42;;;7.88;;
29402;SDS011;16382;59.942;30.472;2023-02-15T08:45:27;29.25;;;8.85;;
29402;SDS011;16382;59.942;30.472;2023-02-15T08:47:54;15.55;;;8.35;;
29402;SDS011;16382;59.942;30.472;2023-02-15T08:50:22;20.98;;;9.00;;
29402;SDS011;16382;59.942;30.472;2023-02-15T08:52:51;15.43;;;8.48;;
29402;SDS011;16382;59.942;30.472;2023-02-15T08:55:18;19.35;;;8.95;;
29402;SDS011;16382;59.942;30.472;2023-02-15T08:57:47;27.30;;;10.15;;
29402;SDS011;16382;59.942;30.472;2023-02-15T09:00:14;21.05;;;10.02;;
29402;SDS011;16382;59.942;30.472;2023-02-15T09:02:43;24.85;;;11.13;;
29402;SDS011;16382;59.942;30.472;2023-02-15T09:05:10;19.73;;;10.55;;
29402;SDS011;16382;59.942;30.472;2023-02-15T09:07:38;26.02;;;9.32;;
29402;SDS011;16382;59.942;30.472;2023-02-15T09:10:08;22.10;;;9.35;;
29402;SDS011;16382;59.942;30.472;2023-02-15T09:12:36;19.98;;;8.48;;
29402;SDS011;16382;59.942;30.472;2023-02-15T09:15:03;23.67;;;10.35;;
29402;SDS011;16382;59.942;30.472;2023-02-15T09:17:32;21.65;;;9.23;;
29402;SDS011;16382;59.942;30.472;2023-02-15T09:19:59;22.30;;;9.65;;
29402;SDS011;16382;59.942;30.472;2023-02-15T09:22:28;25.35;;;9.75;;
29402;SDS011;16382;59.942;30.472;2023-02-15T09:24:56;21.23;;;8.82;;
29402;SDS011;16382;59.942;30.472;2023-02-15T09:27:25;14.82;;;9.15;;
29402;SDS011;16382;59.942;30.472;2023-02-15T09:29:52;19.00;;;10.05;;
29402;SDS011;16382;59.942;30.472;2023-02-15T09:32:19;20.90;;;9.27;;
29402;SDS011;16382;59.942;30.472;2023-02-15T09:34:47;20.70;;;10.10;;
29402;SDS011;16382;59.942;30.472;2023-02-15T09:37:14;21.45;;;9.65;;
29402;SDS011;16382;59.942;30.472;2023-02-15T09:39:42;20.30;;;9.15;;
29402;SDS011;16382;59.942;30.472;2023-02-15T09:42:24;21.77;;;10.13;;
29402;SDS011;16382;59.942;30.472;2023-02-15T09:45:49;17.48;;;8.90;;
29402;SDS011;16382;59.942;30.472;2023-02-15T09:48:46;14.95;;;8.68;;
29402;SDS011;16382;59.942;30.472;2023-02-15T09:51:22;18.63;;;9.15;;
29402;SDS011;16382;59.942;30.472;2023-02-15T09:57:09;22.75;;;8.93;;
29402;SDS011;16382;59.942;30.472;2023-02-15T09:59:48;20.35;;;9.52;;
29402;SDS011;16382;59.942;30.472;2023-02-15T10:02:27;18.85;;;8.40;;
29402;SDS011;16382;59.942;30.472;2023-02-15T10:05:14;21.60;;;9.48;;
29402;SDS011;16382;59.942;30.472;2023-02-15T10:08:01;20.20;;;8.20;;
29402;SDS011;16382;59.942;30.472;2023-02-15T10:10:58;22.52;;;9.13;;
29402;SDS011;16382;59.942;30.472;2023-02-15T10:13:48;23.65;;;9.45;;
29402;SDS011;16382;59.942;30.472;2023-02-15T10:16:31;21.60;;;10.35;;
29402;SDS011;16382;59.942;30.472;2023-02-15T10:19:10;21.23;;;8.82;;
29402;SDS011;16382;59.942;30.472;2023-02-15T10:21:54;16.77;;;8.88;;
29402;SDS011;16382;59.942;30.472;2023-02-15T10:24:44;18.08;;;9.25;;
29402;SDS011;16382;59.942;30.472;2023-02-15T10:27:29;19.73;;;9.48;;
29402;SDS011;16382;59.942;30.472;2023-02-15T10:30:08;18.77;;;10.10;;
29402;SDS011;16382;59.942;30.472;2023-02-15T10:32:40;20.95;;;10.75;;
29402;SDS011;16382;59.942;30.472;2023-02-15T10:35:25;24.67;;;11.05;;
29402;SDS011;16382;59.942;30.472;2023-02-15T10:38:03;26.23;;;10.70;;
29402;SDS011;16382;59.942;30.472;2023-02-15T10:40:45;18.85;;;10.50;;
29402;SDS011;16382;59.942;30.472;2023-02-15T10:43:38;29.20;;;11.55;;
29402;SDS011;16382;59.942;30.472;2023-02-15T10:46:22;26.92;;;11.63;;
29402;SDS011;16382;59.942;30.472;2023-02-15T10:49:13;27.33;;;11.55;;
29402;SDS011;16382;59.942;30.472;2023-02-15T10:52:10;21.83;;;11.32;;
29402;SDS011;16382;59.942;30.472;2023-02-15T10:54:54;25.33;;;11.10;;
29402;SDS011;16382;59.942;30.472;2023-02-15T10:57:38;27.90;;;10.75;;
29402;SDS011;16382;59.942;30.472;2023-02-15T11:00:16;23.17;;;10.73;;
29402;SDS011;16382;59.942;30.472;2023-02-15T11:02:53;21.83;;;10.70;;
29402;SDS011;16382;59.942;30.472;2023-02-15T11:05:41;23.95;;;10.35;;
29402;SDS011;16382;59.942;30.472;2023-02-15T11:08:15;19.60;;;8.85;;
29402;SDS011;16382;59.942;30.472;2023-02-15T11:10:44;29.27;;;10.95;;
29402;SDS011;16382;59.942;30.472;2023-02-15T11:13:18;23.63;;;10.02;;
29402;SDS011;16382;59.942;30.472;2023-02-15T11:15:49;22.80;;;10.77;;
29402;SDS011;16382;59.942;30.472;2023-02-15T11:18:27;20.33;;;10.52;;
29402;SDS011;16382;59.942;30.472;2023-02-15T11:21:03;18.70;;;9.70;;
29402;SDS011;16382;59.942;30.472;2023-02-15T11:23:39;21.80;;;10.77;;
29402;SDS011;16382;59.942;30.472;2023-02-15T11:26:11;18.17;;;10.27;;
29402;SDS011;16382;59.942;30.472;2023-02-15T11:28:45;19.73;;;10.98;;
29402;SDS011;16382;59.942;30.472;2023-02-15T11:31:20;22.33;;;10.40;;
29402;SDS011;16382;59.942;30.472;2023-02-15T11:33:51;28.27;;;10.50;;
29402;SDS011;16382;59.942;30.472;2023-02-15T11:36:25;23.40;;;10.07;;
29402;SDS011;16382;59.942;30.472;2023-02-15T11:39:00;23.05;;;10.32;;
29402;SDS011;16382;59.942;30.472;2023-02-15T11:41:32;27.52;;;10.38;;
29402;SDS011;16382;59.942;30.472;2023-02-15T11:44:06;19.35;;;9.80;;
29402;SDS011;16382;59.942;30.472;2023-02-15T11:46:40;21.65;;;9.88;;
29402;SDS011;16382;59.942;30.472;2023-02-15T11:49:09;23.13;;;9.63;;
29402;SDS011;16382;59.942;30.472;2023-02-15T11:51:50;22.80;;;8.70;;
29402;SDS011;16382;59.942;30.472;2023-02-15T11:54:19;18.10;;;9.57;;
29402;SDS011;16382;59.942;30.472;2023-02-15T11:56:53;20.38;;;9.25;;
29402;SDS011;16382;59.942;30.472;2023-02-15T11:59:24;24.65;;;8.82;;
29402;SDS011;16382;59.942;30.472;2023-02-15T12:01:59;13.65;;;7.55;;
29402;SDS011;16382;59.942;30.472;2023-02-15T12:05:13;20.60;;;8.27;;
29402;SDS011;16382;59.942;30.472;2023-02-15T12:07:55;17.98;;;8.25;;
29402;SDS011;16382;59.942;30.472;2023-02-15T12:10:29;18.35;;;7.78;;
29402;SDS011;16382;59.942;30.472;2023-02-15T12:13:10;20.00;;;8.45;;
29402;SDS011;16382;59.942;30.472;2023-02-15T12:15:40;21.20;;;7.85;;
29402;SDS011;16382;59.942;30.472;2023-02-15T12:18:17;23.88;;;8.35;;
29402;SDS011;16382;59.942;30.472;2023-02-15T12:20:53;20.42;;;7.93;;
29402;SDS011;16382;59.942;30.472;2023-02-15T12:23:27;18.20;;;8.52;;
29402;SDS011;16382;59.942;30.472;2023-02-15T12:25:56;20.98;;;8.25;;
29402;SDS011;16382;59.942;30.472;2023-02-15T12:28:26;26.02;;;9.95;;
29402;SDS011;16382;59.942;30.472;2023-02-15T12:30:58;27.55;;;9.98;;
29402;SDS011;16382;59.942;30.472;2023-02-15T12:33:29;19.77;;;8.70;;
29402;SDS011;16382;59.942;30.472;2023-02-15T12:36:00;20.23;;;8.95;;
29402;SDS011;16382;59.942;30.472;2023-02-15T12:38:36;20.33;;;9.20;;
29402;SDS011;16382;59.942;30.472;2023-02-15T12:41:04;19.73;;;8.30;;
29402;SDS011;16382;59.942;30.472;2023-02-15T12:43:50;20.75;;;9.05;;
29402;SDS011;16382;59.942;30.472;2023-02-15T12:46:32;19.30;;;8.15;;
29402;SDS011;16382;59.942;30.472;2023-02-15T12:49:04;25.20;;;9.80;;
29402;SDS011;16382;59.942;30.472;2023-02-15T12:51:46;17.88;;;8.40;;
29402;SDS011;16382;59.942;30.472;2023-02-15T12:54:20;16.80;;;7.93;;
29402;SDS011;16382;59.942;30.472;2023-02-15T12:59:57;20.27;;;7.82;;
29402;SDS011;16382;59.942;30.472;2023-02-15T13:02:31;15.60;;;7.30;;
29402;SDS011;16382;59.942;30.472;2023-02-15T13:05:14;23.17;;;8.95;;
29402;SDS011;16382;59.942;30.472;2023-02-15T13:07:45;16.50;;;7.68;;
29402;SDS011;16382;59.942;30.472;2023-02-15T13:15:25;13.65;;;6.65;;
29402;SDS011;16382;59.942;30.472;2023-02-15T13:17:59;14.13;;;6.88;;
29402;SDS011;16382;59.942;30.472;2023-02-15T13:20:30;14.27;;;6.85;;
29402;SDS011;16382;59.942;30.472;2023-02-15T13:23:03;13.68;;;6.90;;
29402;SDS011;16382;59.942;30.472;2023-02-15T13:25:44;13.68;;;6.70;;
29402;SDS011;16382;59.942;30.472;2023-02-15T13:28:16;13.85;;;6.30;;
29402;SDS011;16382;59.942;30.472;2023-02-15T13:30:47;13.45;;;6.68;;
29402;SDS011;16382;59.942;30.472;2023-02-15T13:33:16;16.88;;;6.10;;
29402;SDS011;16382;59.942;30.472;2023-02-15T13:35:56;12.15;;;6.00;;
29402;SDS011;16382;59.942;30.472;2023-02-15T13:38:45;12.75;;;6.05;;
29402;SDS011;16382;59.942;30.472;2023-02-15T13:41:23;12.52;;;5.72;;
29402;SDS011;16382;59.942;30.472;2023-02-15T13:44:01;23.38;;;7.40;;
29402;SDS011;16382;59.942;30.472;2023-02-15T13:46:51;15.20;;;6.00;;
29402;SDS011;16382;59.942;30.472;2023-02-15T13:49:42;12.23;;;5.95;;
29402;SDS011;16382;59.942;30.472;2023-02-15T13:52:27;15.80;;;6.82;;
29402;SDS011;16382;59.942;30.472;2023-02-15T13:55:25;13.95;;;5.68;;
29402;SDS011;16382;59.942;30.472;2023-02-15T14:02:15;13.00;;;4.57;;
29402;SDS011;16382;59.942;30.472;2023-02-15T14:05:40;13.05;;;5.07;;
29402;SDS011;16382;59.942;30.472;2023-02-15T14:08:40;13.13;;;5.57;;
29402;SDS011;16382;59.942;30.472;2023-02-15T14:11:25;16.10;;;5.38;;
29402;SDS011;16382;59.942;30.472;2023-02-15T14:14:11;13.20;;;4.45;;
29402;SDS011;16382;59.942;30.472;2023-02-15T14:16:57;12.38;;;5.28;;
29402;SDS011;16382;59.942;30.472;2023-02-15T14:19:38;14.60;;;4.68;;
29402;SDS011;16382;59.942;30.472;2023-02-15T14:22:17;12.35;;;5.05;;
29402;SDS011;16382;59.942;30.472;2023-02-15T14:24:58;12.13;;;4.80;;
29402;SDS011;16382;59.942;30.472;2023-02-15T14:27:43;13.45;;;4.05;;
29402;SDS011;16382;59.942;30.472;2023-02-15T14:30:22;5.90;;;3.83;;
29402;SDS011;16382;59.942;30.472;2023-02-15T14:32:57;16.48;;;5.03;;
29402;SDS011;16382;59.942;30.472;2023-02-15T14:35:32;11.55;;;3.88;;
29402;SDS011;16382;59.942;30.472;2023-02-15T14:38:04;19.52;;;4.75;;
29402;SDS011;16382;59.942;30.472;2023-02-15T14:40:40;17.50;;;5.90;;
29402;SDS011;16382;59.942;30.472;2023-02-15T14:43:43;14.13;;;5.05;;
29402;SDS011;16382;59.942;30.472;2023-02-15T14:46:23;10.60;;;4.32;;
29402;SDS011;16382;59.942;30.472;2023-02-15T14:49:03;12.05;;;4.97;;
29402;SDS011;16382;59.942;30.472;2023-02-15T14:57:34;12.32;;;4.95;;
29402;SDS011;16382;59.942;30.472;2023-02-15T15:03:00;15.07;;;4.45;;
29402;SDS011;16382;59.942;30.472;2023-02-15T15:05:33;16.92;;;5.47;;
29402;SDS011;16382;59.942;30.472;2023-02-15T15:08:21;12.70;;;5.32;;
29402;SDS011;16382;59.942;30.472;2023-02-15T15:10:54;15.38;;;5.28;;
29402;SDS011;16382;59.942;30.472;2023-02-15T15:13:38;16.13;;;5.70;;
29402;SDS011;16382;59.942;30.472;2023-02-15T15:16:30;9.23;;;5.05;;
29402;SDS011;16382;59.942;30.472;2023-02-15T15:22:34;19.33;;;6.55;;
29402;SDS011;16382;59.942;30.472;2023-02-15T15:28:15;20.17;;;6.15;;
29402;SDS011;16382;59.942;30.472;2023-02-15T15:31:42;15.45;;;6.40;;
29402;SDS011;16382;59.942;30.472;2023-02-15T15:34:18;18.90;;;6.35;;
29402;SDS011;16382;59.942;30.472;2023-02-15T15:37:43;17.95;;;5.90;;
29402;SDS011;16382;59.942;30.472;2023-02-15T15:40:46;12.88;;;6.07;;